Time;durP1;ratioP1;P1;durP2;ratioP2;P2;SDS_P1;SDS_P2;PMS_P1;PMS_P2;Temp;Humidity;BMP_temperature;BMP_pressure;BME280_temperature;BME280_humidity;BME280_pressure;Samples;Min_cycle;Max_cycle;Signal;HPM_P1;HPM_P2
2021/09/03 00:00:52;;;;;;;;;23.00;16.25;;;;;19.14;61.72;101708.72;5036903;28;45387;-77
2021/09/03 00:03:17;;;;;;;;;19.75;16.75;;;;;19.15;61.57;101713.09;5036391;28;45746;-79
2021/09/03 00:05:43;;;;;;;;;24.75;15.75;;;;;19.13;61.84;101717.66;5036205;28;45434;-78
2021/09/03 00:08:08;;;;;;;;;23.00;16.00;;;;;19.11;62.15;101719.59;5035549;28;45467;-77
2021/09/03 00:10:33;;;;;;;;;16.00;15.00;;;;;19.04;62.33;101708.44;5040488;28;45439;-76
2021/09/03 00:12:59;;;;;;;;;21.75;17.75;;;;;18.86;62.41;101674.97;5036924;28;45285;-78
2021/09/03 00:15:24;;;;;;;;;18.00;15.50;;;;;18.99;61.88;101703.38;5043676;28;45586;-77
2021/09/03 00:17:50;;;;;;;;;18.00;15.75;;;;;18.82;62.20;101666.31;5044696;28;45480;-77
2021/09/03 00:20:15;;;;;;;;;18.50;15.25;;;;;18.93;62.38;101687.81;5036515;28;45492;-76
2021/09/03 00:22:42;;;;;;;;;15.50;14.00;;;;;18.97;62.22;101697.31;5035731;28;45619;-77
2021/09/03 00:25:09;;;;;;;;;16.50;15.50;;;;;18.99;62.67;101707.88;5039965;28;46218;-77
2021/09/03 00:27:35;;;;;;;;;18.00;15.50;;;;;18.97;62.36;101707.97;5015421;28;45453;-77
2021/09/03 00:30:00;;;;;;;;;19.00;16.75;;;;;18.75;62.92;101673.84;5029530;28;45385;-77
2021/09/03 00:32:26;;;;;;;;;14.75;14.25;;;;;18.94;62.34;101705.50;5037342;28;57306;-76
2021/09/03 00:34:51;;;;;;;;;15.75;14.00;;;;;18.93;62.57;101709.09;5035957;28;46234;-76
2021/09/03 00:37:17;;;;;;;;;17.25;16.75;;;;;18.92;62.55;101701.22;5035804;28;45450;-77
2021/09/03 00:39:42;;;;;;;;;15.75;15.00;;;;;18.87;62.87;101692.66;5014836;28;46930;-76
2021/09/03 00:42:11;;;;;;;;;14.50;14.50;;;;;18.89;62.74;101699.59;5039526;28;45617;-76
2021/09/03 00:44:37;;;;;;;;;25.50;19.25;;;;;18.87;63.30;101695.31;5035907;28;46164;-77
2021/09/03 00:47:03;;;;;;;;;18.25;16.25;;;;;18.85;62.66;101690.09;5050510;28;45498;-77
2021/09/03 00:49:28;;;;;;;;;20.00;16.75;;;;;18.76;62.79;101672.88;5040117;28;45400;-76
2021/09/03 00:51:54;;;;;;;;;20.50;18.00;;;;;18.83;63.11;101678.69;5038886;28;45885;-76
2021/09/03 00:54:19;;;;;;;;;21.75;17.50;;;;;18.82;62.79;101687.63;5035245;28;46809;-77
2021/09/03 00:56:45;;;;;;;;;23.50;18.25;;;;;18.74;63.36;101671.25;5035197;28;49894;-76
2021/09/03 00:59:11;;;;;;;;;20.50;18.75;;;;;18.80;63.19;101678.03;5041230;28;45481;-76
2021/09/03 01:01:36;;;;;;;;;21.25;18.00;;;;;18.74;62.93;101677.47;5045409;28;45365;-77
2021/09/03 01:04:03;;;;;;;;;21.25;17.75;;;;;18.72;62.68;101676.69;5036198;28;46456;-76
2021/09/03 01:06:29;;;;;;;;;23.50;22.50;;;;;18.71;63.66;101668.78;5034288;28;45494;-76
2021/09/03 01:08:54;;;;;;;;;22.75;22.00;;;;;18.69;63.58;101668.91;5035670;28;45479;-76
2021/09/03 01:11:20;;;;;;;;;22.75;21.50;;;;;18.65;63.65;101664.69;5037792;28;45493;-76
2021/09/03 01:13:45;;;;;;;;;24.25;21.75;;;;;18.61;63.90;101665.81;5035974;28;45483;-77
2021/09/03 01:16:10;;;;;;;;;19.25;14.50;;;;;18.64;63.97;101665.63;5035609;28;45614;-79
2021/09/03 01:18:36;;;;;;;;;21.25;19.00;;;;;18.61;63.38;101662.28;5035619;28;45324;-76
2021/09/03 01:21:01;;;;;;;;;22.00;20.00;;;;;18.39;63.79;101626.38;5034050;28;49414;-76
2021/09/03 01:23:27;;;;;;;;;20.00;16.75;;;;;18.54;63.97;101656.50;5035400;28;45522;-77
2021/09/03 01:25:53;;;;;;;;;27.75;22.00;;;;;18.54;64.52;101653.84;5035260;28;45527;-77
2021/09/03 01:28:18;;;;;;;;;25.25;21.00;;;;;18.44;64.27;101639.38;5037554;28;45457;-76
2021/09/03 01:30:43;;;;;;;;;24.00;22.00;;;;;18.47;64.71;101656.00;5037042;28;45663;-76
2021/09/03 01:33:09;;;;;;;;;24.25;21.50;;;;;18.44;65.02;101648.22;5039660;28;45606;-76
2021/09/03 01:35:34;;;;;;;;;23.75;21.75;;;;;18.41;64.69;101648.41;5034721;28;45510;-77
2021/09/03 01:38:00;;;;;;;;;25.25;24.25;;;;;18.38;65.56;101653.94;5035531;28;45907;-76
2021/09/03 01:40:25;;;;;;;;;34.25;27.75;;;;;18.36;65.24;101642.50;5039917;28;45495;-76
2021/09/03 01:42:51;;;;;;;;;33.75;25.75;;;;;18.28;65.30;101636.81;5035260;28;45372;-76
2021/09/03 01:45:16;;;;;;;;;28.00;25.25;;;;;18.30;65.54;101642.03;5034686;28;45698;-77
2021/09/03 01:47:41;;;;;;;;;39.25;29.50;;;;;18.30;65.88;101644.69;5035061;28;45687;-76
2021/09/03 01:50:07;;;;;;;;;32.75;31.00;;;;;18.24;65.87;101638.78;5034840;28;45530;-76
2021/09/03 01:52:33;;;;;;;;;41.75;31.75;;;;;18.25;66.34;101648.47;5034922;28;46547;-77
2021/09/03 01:54:58;;;;;;;;;46.25;35.25;;;;;18.23;66.36;101646.88;5034760;28;45355;-76
2021/09/03 01:57:24;;;;;;;;;42.50;33.00;;;;;18.20;66.40;101642.59;5035080;28;45244;-76
2021/09/03 01:59:49;;;;;;;;;42.25;32.50;;;;;18.19;66.62;101643.53;5034970;28;45561;-77
2021/09/03 02:02:14;;;;;;;;;46.50;33.25;;;;;18.14;66.12;101637.63;5035967;28;45599;-77
2021/09/03 02:04:39;;;;;;;;;46.25;34.75;;;;;18.09;66.23;101639.72;5042789;28;51292;-79
2021/09/03 02:07:05;;;;;;;;;47.00;35.75;;;;;18.12;66.95;101641.34;5017715;28;45441;-77
2021/09/03 02:09:30;;;;;;;;;45.50;35.00;;;;;18.09;66.85;101634.41;5034938;28;45578;-77
2021/09/03 02:11:55;;;;;;;;;48.50;35.00;;;;;17.84;67.20;101586.28;5037885;28;45489;-76
2021/09/03 02:14:21;;;;;;;;;49.75;38.25;;;;;18.02;67.32;101622.44;5034445;28;45494;-76
2021/09/03 02:16:46;;;;;;;;;47.50;38.50;;;;;18.02;66.97;101630.41;5034718;28;45571;-76
2021/09/03 02:19:12;;;;;;;;;44.25;34.50;;;;;17.95;67.40;101624.56;5044608;28;45372;-77
2021/09/03 02:21:37;;;;;;;;;40.50;32.00;;;;;17.98;67.09;101632.38;5038510;28;56913;-77
2021/09/03 02:24:04;;;;;;;;;43.25;33.50;;;;;17.91;67.38;101624.88;5016467;28;45499;-77
2021/09/03 02:26:30;;;;;;;;;39.25;31.25;;;;;17.95;67.58;101637.00;5034980;28;45471;-77
2021/09/03 02:28:55;;;;;;;;;37.50;30.00;;;;;17.94;67.68;101636.16;5040751;28;45443;-76
2021/09/03 02:31:20;;;;;;;;;38.50;30.00;;;;;17.94;67.71;101637.97;5035421;28;50418;-78
2021/09/03 02:33:46;;;;;;;;;41.75;32.25;;;;;17.88;67.30;101631.22;5033650;28;45465;-76
2021/09/03 02:36:11;;;;;;;;;37.75;31.25;;;;;17.93;67.56;101633.59;5033809;28;45801;-76
2021/09/03 02:38:36;;;;;;;;;34.75;31.00;;;;;17.92;67.25;101632.75;5034014;28;46601;-76
2021/09/03 02:41:02;;;;;;;;;35.75;29.75;;;;;17.80;67.64;101614.00;5035223;28;46083;-76
2021/09/03 02:43:27;;;;;;;;;32.00;30.00;;;;;17.73;67.67;101609.03;5030771;28;45580;-77
2021/09/03 02:45:53;;;;;;;;;34.00;29.25;;;;;17.78;68.01;101627.38;5034564;28;45341;-76
2021/09/03 02:48:18;;;;;;;;;35.00;30.00;;;;;17.74;68.13;101604.56;5033834;28;45766;-76
2021/09/03 02:50:44;;;;;;;;;37.50;31.50;;;;;17.62;68.29;101599.97;5036111;28;45547;-76
2021/09/03 02:53:10;;;;;;;;;32.75;30.00;;;;;17.74;68.35;101625.84;5040308;28;45483;-76
2021/09/03 02:55:35;;;;;;;;;32.50;29.75;;;;;17.64;68.13;101619.31;5033919;28;45744;-76
2021/09/03 02:58:00;;;;;;;;;32.50;30.00;;;;;17.62;68.24;101611.44;5034324;28;46046;-77
2021/09/03 03:00:27;;;;;;;;;45.75;33.00;;;;;17.60;68.30;101604.53;5034724;28;47213;-76
2021/09/03 03:02:53;;;;;;;;;44.00;31.75;;;;;17.63;69.00;101604.31;5042001;28;45428;-76
2021/09/03 03:05:19;;;;;;;;;46.75;34.25;;;;;17.63;68.54;101606.97;5034036;28;45494;-77
2021/09/03 03:07:44;;;;;;;;;47.00;34.50;;;;;17.61;68.96;101608.88;5034150;28;45575;-77
2021/09/03 03:10:10;;;;;;;;;46.75;33.25;;;;;17.57;69.10;101607.34;5034276;28;45940;-77
2021/09/03 03:12:35;;;;;;;;;39.25;31.50;;;;;17.38;69.50;101579.19;5035884;28;45428;-76
2021/09/03 03:15:01;;;;;;;;;37.50;32.50;;;;;17.49;69.09;101586.56;5033363;28;45423;-76
2021/09/03 03:17:27;;;;;;;;;39.50;30.50;;;;;17.50;69.19;101598.88;5015957;28;45618;-76
2021/09/03 03:19:53;;;;;;;;;38.50;34.25;;;;;17.47;69.26;101597.25;5046372;28;46324;-76
2021/09/03 03:22:18;;;;;;;;;40.75;33.00;;;;;17.43;69.05;101585.06;5034195;28;45538;-78
2021/09/03 03:24:43;;;;;;;;;37.00;33.25;;;;;17.44;69.64;101601.91;5033162;28;46243;-78
2021/09/03 03:27:09;;;;;;;;;41.75;33.00;;;;;17.50;69.60;101606.84;5033309;28;45530;-77
2021/09/03 03:29:35;;;;;;;;;36.00;31.75;;;;;17.49;69.68;101605.16;5017285;28;46017;-76
2021/09/03 03:32:00;;;;;;;;;39.00;31.75;;;;;17.46;69.64;101600.84;5038656;28;45466;-77
2021/09/03 03:34:27;;;;;;;;;42.75;30.75;;;;;17.45;69.51;101596.50;5040599;28;45514;-76
2021/09/03 03:36:52;;;;;;;;;39.25;34.00;;;;;17.31;69.65;101579.63;5043535;28;45742;-76
2021/09/03 03:39:17;;;;;;;;;42.00;33.75;;;;;17.41;69.60;101594.94;5044022;28;45384;-76
2021/09/03 03:41:42;;;;;;;;;39.75;32.50;;;;;17.39;69.63;101598.66;5043181;28;45360;-77
2021/09/03 03:44:08;;;;;;;;;45.75;34.50;;;;;17.25;70.22;101585.31;5041544;28;46321;-76
2021/09/03 03:46:33;;;;;;;;;40.25;31.50;;;;;17.36;69.62;101612.09;5040288;28;45470;-76
2021/09/03 03:48:59;;;;;;;;;42.00;33.25;;;;;17.25;69.88;101606.56;5039684;28;45861;-76
2021/09/03 03:51:24;;;;;;;;;39.75;33.75;;;;;17.33;69.97;101621.13;5039693;28;49771;-76
2021/09/03 03:53:49;;;;;;;;;37.25;34.00;;;;;17.09;70.02;101586.16;5039893;28;45415;-79
2021/09/03 03:56:15;;;;;;;;;36.50;31.25;;;;;17.30;70.17;101609.81;5039554;28;45493;-78
2021/09/03 03:58:41;;;;;;;;;37.00;31.50;;;;;17.20;70.06;101591.72;5040262;28;45983;-77
2021/09/03 04:01:06;;;;;;;;;42.50;31.50;;;;;17.26;69.34;101609.09;5023010;28;45719;-77
2021/09/03 04:03:31;;;;;;;;;37.00;32.50;;;;;17.24;69.87;101610.16;5039693;28;45467;-77
2021/09/03 04:05:57;;;;;;;;;36.00;29.50;;;;;17.20;69.82;101620.09;5039614;28;45486;-80
2021/09/03 04:08:22;;;;;;;;;35.50;31.00;;;;;17.08;69.97;101603.06;5040153;28;45386;-77
2021/09/03 04:10:47;;;;;;;;;38.00;31.75;;;;;17.04;70.33;101592.69;5043065;28;45238;-77
2021/09/03 04:13:13;;;;;;;;;38.00;30.25;;;;;17.04;70.19;101596.19;5039237;28;45806;-77
2021/09/03 04:15:38;;;;;;;;;34.00;30.25;;;;;17.05;70.31;101594.41;5038945;28;45450;-77
2021/09/03 04:18:03;;;;;;;;;35.75;31.25;;;;;17.07;70.71;101601.34;5025938;28;46038;-77
2021/09/03 04:20:29;;;;;;;;;30.00;28.25;;;;;17.04;70.90;101605.97;5041517;28;45463;-78
2021/09/03 04:22:54;;;;;;;;;33.00;30.25;;;;;16.94;70.18;101587.03;5039538;28;45380;-77
2021/09/03 04:25:20;;;;;;;;;32.75;27.75;;;;;16.99;70.57;101600.06;5039425;28;45626;-77
2021/09/03 04:27:45;;;;;;;;;33.50;28.50;;;;;16.97;70.88;101594.84;5040964;28;47548;-76
2021/09/03 04:30:11;;;;;;;;;37.00;30.50;;;;;16.90;70.76;101588.13;5045107;28;45543;-76
2021/09/03 04:32:37;;;;;;;;;35.25;30.00;;;;;16.91;70.90;101595.16;5039735;28;45447;-76
2021/09/03 04:35:03;;;;;;;;;37.75;31.25;;;;;16.84;71.11;101593.78;5039239;28;45530;-76
2021/09/03 04:37:29;;;;;;;;;35.50;30.25;;;;;16.86;71.09;101602.53;5039078;28;45499;-76
2021/09/03 04:39:54;;;;;;;;;43.50;31.50;;;;;16.84;71.61;101594.66;5039233;28;45419;-76
2021/09/03 04:42:19;;;;;;;;;31.50;28.75;;;;;16.82;71.30;101599.19;5034399;28;45487;-76
2021/09/03 04:44:45;;;;;;;;;32.50;28.50;;;;;16.80;71.23;101590.44;5035194;28;45648;-76
2021/09/03 04:47:10;;;;;;;;;29.50;27.00;;;;;16.80;71.40;101593.09;5035830;28;45932;-76
2021/09/03 04:49:35;;;;;;;;;32.25;29.50;;;;;16.78;71.27;101592.34;5035734;28;45507;-77
2021/09/03 04:52:01;;;;;;;;;34.00;28.50;;;;;16.76;71.67;101580.97;5035729;28;45566;-74
2021/09/03 04:54:26;;;;;;;;;33.50;30.50;;;;;16.75;70.89;101587.19;5036055;28;47794;-74
2021/09/03 04:56:51;;;;;;;;;36.75;25.50;;;;;16.63;71.49;101566.59;5035013;28;46194;-81
2021/09/03 04:59:17;;;;;;;;;35.50;30.00;;;;;16.62;71.53;101568.41;5039236;28;48844;-75
2021/09/03 05:01:42;;;;;;;;;36.50;30.75;;;;;16.59;71.55;101557.94;5039621;28;45391;-74
2021/09/03 05:04:07;;;;;;;;;32.50;26.75;;;;;16.70;71.33;101586.56;5035862;28;45510;-74
2021/09/03 05:06:33;;;;;;;;;30.50;28.50;;;;;16.73;71.72;101586.44;5036460;28;46042;-75
2021/09/03 05:08:58;;;;;;;;;36.25;26.25;;;;;16.73;71.85;101586.44;5035633;28;45503;-75
2021/09/03 05:11:24;;;;;;;;;30.50;28.50;;;;;16.65;71.86;101564.72;5034893;28;45483;-74
2021/09/03 05:13:49;;;;;;;;;30.75;26.25;;;;;16.76;71.77;101580.97;5035630;28;45516;-76
2021/09/03 05:16:14;;;;;;;;;36.50;29.75;;;;;16.74;71.63;101580.16;5040556;28;46146;-75
2021/09/03 05:18:40;;;;;;;;;28.00;25.50;;;;;16.79;71.52;101582.56;5026028;28;45659;-75
2021/09/03 05:21:07;;;;;;;;;26.00;24.25;;;;;16.77;71.77;101582.66;5041290;28;45592;-75
2021/09/03 05:23:32;;;;;;;;;37.25;30.50;;;;;16.80;71.54;101585.13;5017176;28;47114;-75
2021/09/03 05:25:58;;;;;;;;;39.00;30.75;;;;;16.69;71.54;101572.44;5034539;28;46162;-77
2021/09/03 05:28:23;;;;;;;;;37.25;33.00;;;;;16.82;71.44;101595.69;5040030;28;45394;-75
2021/09/03 05:30:48;;;;;;;;;47.50;34.25;;;;;16.82;71.06;101598.34;5035019;28;45352;-75
2021/09/03 05:33:14;;;;;;;;;40.75;34.25;;;;;16.82;71.48;101590.38;5037146;28;45673;-75
2021/09/03 05:35:39;;;;;;;;;39.75;35.50;;;;;16.81;71.72;101589.53;5043596;28;49827;-75
2021/09/03 05:38:04;;;;;;;;;42.25;33.75;;;;;16.82;71.28;101596.53;5036579;28;45453;-75
2021/09/03 05:40:34;;;;;;;;;41.75;31.75;;;;;16.79;71.44;101593.19;5035470;28;45486;-75
2021/09/03 05:43:00;;;;;;;;;50.25;34.00;;;;;16.86;71.30;101603.41;5037322;28;45491;-74
2021/09/03 05:45:25;;;;;;;;;40.75;33.25;;;;;16.89;71.58;101605.03;5034791;28;45580;-75
2021/09/03 05:47:51;;;;;;;;;42.00;31.00;;;;;16.93;71.47;101614.53;5036788;28;45487;-74
2021/09/03 05:50:16;;;;;;;;;44.75;34.00;;;;;16.81;71.33;101578.91;5035118;28;45436;-74
2021/09/03 05:52:42;;;;;;;;;43.75;33.50;;;;;16.95;71.46;101597.56;5048189;28;45439;-75
2021/09/03 05:55:08;;;;;;;;;42.25;34.25;;;;;17.05;70.99;101600.56;5035038;28;45536;-76
2021/09/03 05:57:33;;;;;;;;;38.75;31.00;;;;;17.03;71.49;101607.78;5033422;28;45990;-75
2021/09/03 05:59:59;;;;;;;;;41.25;34.25;;;;;17.09;70.97;101611.88;5015288;28;45341;-75
2021/09/03 06:02:25;;;;;;;;;43.75;33.75;;;;;17.12;70.53;101609.03;5041049;28;45464;-74
2021/09/03 06:04:50;;;;;;;;;42.25;33.75;;;;;17.10;70.41;101605.63;5034936;28;45443;-77
2021/09/03 06:07:15;;;;;;;;;41.75;33.00;;;;;17.16;70.68;101610.56;5035373;28;45405;-75
2021/09/03 06:09:41;;;;;;;;;34.25;31.00;;;;;17.00;70.97;101578.72;5032934;28;45550;-75
2021/09/03 06:12:06;;;;;;;;;40.00;34.25;;;;;17.25;70.76;101615.38;5035549;28;45466;-74
2021/09/03 06:14:32;;;;;;;;;39.75;33.50;;;;;17.37;70.92;101616.47;5043765;28;45427;-74
2021/09/03 06:16:57;;;;;;;;;46.00;34.25;;;;;17.43;70.52;101619.63;5033458;28;45613;-75
2021/09/03 06:19:22;;;;;;;;;39.00;31.75;;;;;17.52;70.26;101620.91;5019006;28;45353;-74
2021/09/03 06:21:48;;;;;;;;;37.00;33.25;;;;;17.57;70.33;101626.81;5040121;28;45300;-82
2021/09/03 06:24:32;;;;;;;;;43.00;34.50;;;;;17.58;70.32;101615.22;5033673;28;46255;-74
2021/09/03 06:27:05;;;;;;;;;42.25;33.75;;;;;17.74;70.02;101626.69;5033875;28;45682;-76
2021/09/03 06:29:41;;;;;;;;;41.50;34.00;;;;;17.81;69.78;101618.38;5037942;28;45288;-78
2021/09/03 06:32:08;;;;;;;;;39.00;33.50;;;;;17.89;69.36;101608.13;5032851;28;45473;-75
2021/09/03 06:34:36;;;;;;;;;45.25;33.00;;;;;17.92;69.58;101606.16;5037298;28;45841;-75
2021/09/03 06:37:01;;;;;;;;;42.25;34.50;;;;;18.00;69.29;101603.88;5032863;28;46087;-75
2021/09/03 06:39:26;;;;;;;;;36.00;32.75;;;;;18.11;68.66;101605.88;5034102;28;45583;-74
2021/09/03 06:41:52;;;;;;;;;39.75;32.75;;;;;18.11;68.33;101595.25;5033529;28;45682;-74
2021/09/03 06:44:17;;;;;;;;;38.75;30.75;;;;;18.28;68.84;101604.03;5033898;28;45463;-76
2021/09/03 06:46:42;;;;;;;;;35.00;32.00;;;;;18.32;67.85;101590.41;5035570;28;45414;-77
2021/09/03 06:49:08;;;;;;;;;39.00;32.50;;;;;18.51;68.31;101611.44;5043690;28;45407;-75
2021/09/03 06:51:33;;;;;;;;;37.00;30.25;;;;;18.60;67.50;101608.19;5037200;28;45365;-74
2021/09/03 06:53:58;;;;;;;;;43.50;32.50;;;;;18.76;67.27;101611.63;5039664;28;50413;-75
2021/09/03 06:56:24;;;;;;;;;38.75;32.25;;;;;18.97;66.72;101614.75;5031030;28;45661;-77
2021/09/03 06:58:49;;;;;;;;;30.50;27.50;;;;;19.18;66.55;101617.81;5031654;28;45638;-77
2021/09/03 07:01:14;;;;;;;;;42.75;33.00;;;;;19.37;66.36;101616.59;5038002;28;45376;-77
2021/09/03 07:03:39;;;;;;;;;37.75;33.00;;;;;19.52;65.72;101616.47;5040684;28;50702;-77
2021/09/03 07:06:05;;;;;;;;;35.67;32.00;;;;;20.42;65.76;101614.78;5040635;28;62988;-76
2021/09/03 07:08:30;;;;;;;;;36.00;29.75;;;;;20.77;63.99;101595.41;5019281;28;45881;-76
2021/09/03 07:10:55;;;;;;;;;40.00;31.75;;;;;20.90;63.35;101592.72;5030824;28;50711;-75
2021/09/03 07:13:21;;;;;;;;;31.25;28.75;;;;;21.34;62.54;101610.84;5047059;28;61229;-76
2021/09/03 07:15:46;;;;;;;;;25.25;20.50;;;;;21.82;61.18;101608.09;5037409;28;45392;-77
2021/09/03 07:18:11;;;;;;;;;25.75;19.50;;;;;21.64;60.55;101597.00;5016630;28;45333;-78
2021/09/03 07:20:37;;;;;;;;;23.75;20.25;;;;;21.47;60.14;101579.56;5035587;28;45416;-77
2021/09/03 07:23:02;;;;;;;;;18.75;17.75;;;;;21.17;61.32;101565.78;5034051;28;46304;-77
2021/09/03 07:25:27;;;;;;;;;20.00;16.00;;;;;21.06;61.46;101586.13;5031438;28;52138;-79
2021/09/03 07:27:53;;;;;;;;;22.00;20.25;;;;;21.00;61.32;101593.75;5037559;28;45488;-78
2021/09/03 07:30:19;;;;;;;;;22.25;19.00;;;;;20.95;60.80;101601.25;5041288;28;45411;-77
2021/09/03 07:32:44;;;;;;;;;24.50;22.00;;;;;20.83;61.43;101605.69;5037377;28;46271;-77
2021/09/03 07:35:12;;;;;;;;;23.25;19.75;;;;;20.82;61.60;101601.28;5037117;28;45246;-78
2021/09/03 07:37:41;;;;;;;;;20.75;17.25;;;;;20.76;61.15;101593.72;5032159;28;45717;-78
2021/09/03 07:40:08;;;;;;;;;22.75;17.25;;;;;20.76;61.19;101602.56;5018189;28;45282;-77
2021/09/03 07:42:33;;;;;;;;;50.25;35.25;;;;;20.84;61.18;101610.06;5037576;28;45598;-78
2021/09/03 07:45:00;;;;;;;;;26.00;21.00;;;;;20.88;61.47;101606.19;5031730;28;45929;-78
2021/09/03 07:47:26;;;;;;;;;18.75;16.75;;;;;20.89;60.88;101602.56;5016310;28;45635;-79
2021/09/03 07:49:51;;;;;;;;;27.00;24.25;;;;;21.02;60.87;101598.00;5032727;28;45542;-78
2021/09/03 07:52:16;;;;;;;;;25.25;22.25;;;;;21.12;60.26;101606.22;5037410;28;45516;-78
2021/09/03 07:54:44;;;;;;;;;26.00;20.50;;;;;21.17;60.68;101606.72;5035085;28;45760;-77
2021/09/03 07:57:09;;;;;;;;;19.00;18.25;;;;;21.23;60.77;101595.56;5035057;28;45375;-77
2021/09/03 07:59:35;;;;;;;;;24.00;21.00;;;;;21.51;60.58;101601.59;5035218;28;45449;-77
2021/09/03 08:02:00;;;;;;;;;23.50;20.75;;;;;22.11;60.83;101596.06;5031804;28;49991;-77
2021/09/03 08:04:25;;;;;;;;;20.75;17.75;;;;;23.46;58.85;101593.22;5037244;28;45636;-78
2021/09/03 08:06:50;;;;;;;;;20.75;18.25;;;;;23.82;56.81;101594.66;5036206;28;45455;-75
2021/09/03 08:09:16;;;;;;;;;19.50;19.00;;;;;23.73;56.35;101584.69;5026337;28;48756;-75
2021/09/03 08:11:41;;;;;;;;;88.00;74.75;;;;;23.62;56.08;101588.25;5036272;28;46933;-75
2021/09/03 08:14:06;;;;;;;;;19.75;17.75;;;;;23.69;56.02;101602.88;5030696;28;45439;-76
2021/09/03 08:16:32;;;;;;;;;24.25;18.50;;;;;23.90;55.93;101600.19;5020443;28;45485;-76
2021/09/03 08:18:57;;;;;;;;;25.75;19.25;;;;;23.98;55.54;101596.88;5038882;28;45599;-75
2021/09/03 08:21:24;;;;;;;;;18.00;17.75;;;;;24.01;55.67;101588.53;5038713;28;45323;-76
2021/09/03 08:23:49;;;;;;;;;18.75;16.25;;;;;24.20;54.56;101593.19;5037756;28;45746;-75
2021/09/03 08:26:15;;;;;;;;;23.50;17.00;;;;;24.44;54.72;101579.47;5036138;28;45411;-76
2021/09/03 08:28:40;;;;;;;;;17.75;17.75;;;;;24.91;54.64;101579.75;5037247;28;46320;-76
2021/09/03 08:31:05;;;;;;;;;17.25;15.75;;;;;25.90;54.46;101569.75;5044132;28;56048;-76
2021/09/03 08:33:30;;;;;;;;;16.25;13.75;;;;;27.27;51.73;101598.63;5037499;28;45455;-76
2021/09/03 08:35:56;;;;;;;;;19.75;17.50;;;;;28.82;50.04;101580.78;5037187;28;45414;-77
2021/09/03 08:38:21;;;;;;;;;20.75;17.75;;;;;29.65;47.67;101597.00;5017106;28;57217;-77
2021/09/03 08:40:48;;;;;;;;;20.25;18.00;;;;;30.52;46.68;101589.91;5034524;28;45827;-77
2021/09/03 08:43:18;;;;;;;;;17.00;16.00;;;;;33.04;44.45;101587.84;5045141;28;45505;-76
2021/09/03 08:45:45;;;;;;;;;20.25;17.75;;;;;35.69;42.49;101582.00;5037383;28;45494;-77
2021/09/03 08:48:11;;;;;;;;;20.00;15.75;;;;;38.11;39.16;101592.16;5037663;28;45586;-77
2021/09/03 08:50:37;;;;;;;;;18.50;16.50;;;;;39.94;36.50;101589.97;5036295;28;46184;-77
2021/09/03 08:53:03;;;;;;;;;18.00;14.25;;;;;41.18;34.10;101589.50;5015827;28;45501;-76
2021/09/03 08:55:28;;;;;;;;;17.00;17.00;;;;;41.83;32.66;101585.38;5040020;28;45487;-77
2021/09/03 08:57:53;;;;;;;;;15.75;15.75;;;;;41.85;32.13;101561.94;5019481;28;45472;-78
2021/09/03 09:00:26;;;;;;;;;21.75;14.50;;;;;41.07;31.58;101582.97;5037058;28;46477;-77
2021/09/03 09:03:00;;;;;;;;;15.75;14.25;;;;;40.91;30.60;101592.84;5036853;28;45571;-77
2021/09/03 09:05:47;;;;;;;;;28.00;27.00;;;;;41.06;30.26;101592.34;5037187;28;45575;-78
2021/09/03 09:08:13;;;;;;;;;15.75;15.00;;;;;41.01;30.08;101574.88;5023437;28;45531;-78
2021/09/03 09:10:46;;;;;;;;;14.25;13.00;;;;;40.92;30.03;101602.81;5036545;28;46022;-78
2021/09/03 09:13:17;;;;;;;;;15.00;13.75;;;;;40.28;30.57;101599.28;5045161;28;45445;-78
2021/09/03 09:15:55;;;;;;;;;11.50;10.75;;;;;39.85;28.96;101591.41;5036641;28;45362;-78
2021/09/03 09:18:45;;;;;;;;;13.75;13.50;;;;;39.38;29.39;101588.59;5031432;28;45423;-78
2021/09/03 09:21:21;;;;;;;;;15.25;15.00;;;;;38.85;29.38;101581.16;5036338;28;45494;-77
2021/09/03 09:23:54;;;;;;;;;13.25;13.25;;;;;38.37;29.57;101584.69;5038879;28;45372;-78
2021/09/03 09:26:23;;;;;;;;;10.75;10.75;;;;;38.01;29.99;101588.25;5033020;28;45543;-78
2021/09/03 09:28:50;;;;;;;;;14.00;11.00;;;;;37.64;30.64;101585.38;5024014;28;45573;-78
2021/09/03 09:31:30;;;;;;;;;14.00;14.00;;;;;37.45;30.66;101591.91;5048948;28;46479;-78
2021/09/03 09:33:56;;;;;;;;;13.00;12.25;;;;;36.91;30.49;101572.22;5036077;28;45399;-78
2021/09/03 09:36:22;;;;;;;;;12.00;12.00;;;;;36.69;31.41;101576.28;5037658;28;45443;-78
2021/09/03 09:38:47;;;;;;;;;16.50;12.00;;;;;36.45;30.71;101567.78;5040254;28;45295;-78
2021/09/03 09:41:14;;;;;;;;;19.00;19.00;;;;;36.26;31.94;101568.66;5033550;28;45629;-79
2021/09/03 09:43:44;;;;;;;;;15.75;13.50;;;;;36.22;31.42;101581.09;5020974;28;45744;-78
2021/09/03 09:46:13;;;;;;;;;13.50;12.25;;;;;36.20;31.81;101575.00;5036765;28;45433;-78
2021/09/03 09:48:50;;;;;;;;;15.75;14.50;;;;;35.91;31.41;101577.13;5018230;28;45524;-77
2021/09/03 09:51:27;;;;;;;;;13.50;13.00;;;;;35.79;31.64;101573.38;5034587;28;45589;-77
2021/09/03 09:53:55;;;;;;;;;16.25;13.75;;;;;35.74;31.55;101571.25;5034037;28;45328;-79
2021/09/03 09:56:22;;;;;;;;;13.25;13.25;;;;;35.86;32.37;101562.41;5032970;28;45398;-78
2021/09/03 09:58:50;;;;;;;;;15.00;12.50;;;;;35.95;31.94;101542.00;5049129;28;45308;-75
2021/09/03 10:01:18;;;;;;;;;17.50;16.00;;;;;36.25;31.24;101553.31;5025142;28;46973;-77
2021/09/03 10:03:47;;;;;;;;;12.75;12.75;;;;;36.38;31.47;101557.88;5032851;28;45654;-77
2021/09/03 10:06:15;;;;;;;;;12.00;12.00;;;;;36.44;31.32;101538.72;5030443;28;45830;-82
2021/09/03 10:08:42;;;;;;;;;60.75;48.25;;;;;36.70;31.48;101556.06;5038373;28;45512;-77
2021/09/03 10:11:08;;;;;;;;;14.00;13.25;;;;;36.89;31.11;101546.94;5036207;28;46172;-77
2021/09/03 10:13:34;;;;;;;;;13.75;13.00;;;;;37.27;31.34;101546.03;5034213;28;45772;-77
2021/09/03 10:15:59;;;;;;;;;15.00;14.00;;;;;37.55;30.51;101537.38;5037797;28;45534;-77
2021/09/03 10:18:24;;;;;;;;;15.75;13.00;;;;;37.93;30.39;101539.97;5037378;28;45506;-78
2021/09/03 10:20:50;;;;;;;;;18.00;15.50;;;;;37.91;30.34;101535.81;5017942;28;46063;-77
2021/09/03 10:23:51;;;;;;;;;17.00;15.50;;;;;37.28;29.94;101544.97;5034763;28;45328;-77
2021/09/03 10:26:21;;;;;;;;;13.50;13.50;;;;;36.52;30.90;101540.38;5018243;28;45424;-76
2021/09/03 10:28:47;;;;;;;;;12.25;11.50;;;;;36.13;31.89;101546.78;5049269;28;45629;-77
2021/09/03 10:31:18;;;;;;;;;14.50;12.50;;;;;35.75;31.75;101552.94;5045830;28;45497;-77
2021/09/03 10:33:44;;;;;;;;;12.25;12.25;;;;;35.37;32.59;101541.81;5035829;28;46342;-77
2021/09/03 10:36:09;;;;;;;;;12.50;12.50;;;;;35.23;32.46;101551.88;5035858;28;45368;-78
2021/09/03 10:38:34;;;;;;;;;15.25;15.25;;;;;35.00;32.86;101547.66;5036750;28;45544;-77
2021/09/03 10:41:02;;;;;;;;;13.75;13.75;;;;;34.77;32.78;101549.91;5043466;28;45998;-77
2021/09/03 10:43:46;;;;;;;;;16.50;13.50;;;;;34.70;33.37;101541.66;5050779;28;45312;-78
2021/09/03 10:46:15;;;;;;;;;21.25;15.00;;;;;34.82;33.01;101547.34;5036692;28;45452;-77
2021/09/03 10:48:48;;;;;;;;;15.25;13.75;;;;;34.68;32.81;101535.59;5037287;28;45459;-78
2021/09/03 10:51:35;;;;;;;;;17.75;15.00;;;;;34.58;33.17;101535.13;5040309;28;46508;-77
2021/09/03 10:54:16;;;;;;;;;15.25;13.50;;;;;34.55;33.72;101529.22;5028376;28;45831;-77
2021/09/03 10:56:56;;;;;;;;;13.75;12.75;;;;;34.47;33.51;101536.56;5036024;28;45557;-77
2021/09/03 10:59:23;;;;;;;;;18.00;13.50;;;;;34.36;34.25;101523.47;5033470;28;45533;-77
2021/09/03 11:01:51;;;;;;;;;12.50;12.00;;;;;34.39;33.93;101525.78;5042875;28;45491;-78
2021/09/03 11:04:17;;;;;;;;;18.75;14.00;;;;;34.20;34.59;101502.84;5028923;28;46119;-78
2021/09/03 11:06:55;;;;;;;;;17.25;14.25;;;;;34.42;34.00;101525.38;5027834;28;45460;-77